Time;durP1;ratioP1;P1;durP2;ratioP2;P2;SDS_P1;SDS_P2;PMS_P1;PMS_P2;Temp;Humidity;BMP_temperature;BMP_pressure;BME280_temperature;BME280_humidity;BME280_pressure;Samples;Min_cycle;Max_cycle;Signal;HPM_P1;HPM_P2
2021/05/28 00:00:39;;;;;;;9.95;4.18;;;;;;;15.97;56.02;101606.25;5091582;28;20055;-68
2021/05/28 00:03:06;;;;;;;8.63;4.22;;;;;;;16.12;55.82;101609.31;5091285;28;20143;-72
2021/05/28 00:05:34;;;;;;;6.30;4.07;;;;;;;16.03;56.10;101610.47;5081276;28;20052;-72
2021/05/28 00:08:01;;;;;;;8.75;4.28;;;;;;;15.96;56.57;101615.69;5071303;28;20052;-70
2021/05/28 00:10:29;;;;;;;6.43;4.10;;;;;;;16.06;56.43;101616.19;5037017;28;20060;-72
2021/05/28 00:12:58;;;;;;;9.55;4.20;;;;;;;16.04;56.73;101612.13;5070983;28;20055;-69
2021/05/28 00:15:25;;;;;;;6.90;3.80;;;;;;;15.98;56.68;101614.25;5070254;28;20048;-65
2021/05/28 00:17:52;;;;;;;6.80;3.90;;;;;;;16.05;56.78;101613.75;5071180;28;20045;-72
2021/05/28 00:20:20;;;;;;;8.38;4.15;;;;;;;16.20;56.37;101618.78;5071352;28;20055;-67
2021/05/28 00:22:47;;;;;;;8.00;4.28;;;;;;;16.25;56.29;101618.63;5071379;28;20048;-64
2021/05/28 00:25:14;;;;;;;10.15;4.70;;;;;;;16.37;56.11;101616.78;5070442;28;20408;-66
2021/05/28 00:27:45;;;;;;;9.18;4.50;;;;;;;16.15;56.55;101611.44;5052269;28;20056;-70
2021/05/28 00:30:13;;;;;;;10.77;5.00;;;;;;;15.93;57.60;101619.97;5053422;28;20052;-74
2021/05/28 00:32:40;;;;;;;7.43;3.83;;;;;;;16.00;57.46;101616.69;5070269;28;20407;-70
2021/05/28 00:35:08;;;;;;;7.22;4.55;;;;;;;15.89;57.81;101623.72;5070566;28;20060;-68
2021/05/28 00:37:36;;;;;;;9.55;4.40;;;;;;;16.09;57.23;101623.06;5070420;28;20044;-69
2021/05/28 00:40:04;;;;;;;9.10;4.40;;;;;;;15.92;57.78;101623.88;5053399;28;20051;-66
2021/05/28 00:42:32;;;;;;;6.22;4.25;;;;;;;15.87;58.03;101617.66;5070197;28;20396;-68
2021/05/28 00:45:00;;;;;;;7.47;4.30;;;;;;;15.79;58.21;101620.09;5086111;28;20550;-65
2021/05/28 00:47:27;;;;;;;9.48;4.47;;;;;;;15.99;58.18;101628.97;5070164;28;20530;-71
2021/05/28 00:49:55;;;;;;;9.45;4.50;;;;;;;16.11;57.67;101631.91;5070660;28;20052;-74
2021/05/28 00:52:23;;;;;;;9.02;4.72;;;;;;;15.97;58.01;101639.59;5070370;28;20055;-72
2021/05/28 00:54:52;;;;;;;8.20;4.47;;;;;;;16.03;57.98;101638.25;5053207;28;20068;-73
2021/05/28 00:57:21;;;;;;;8.52;5.28;;;;;;;15.64;59.13;101636.44;5052390;28;20047;-69
2021/05/28 00:59:50;;;;;;;10.00;5.32;;;;;;;15.55;59.43;101632.84;5053160;28;20048;-71
2021/05/28 01:02:17;;;;;;;7.87;5.53;;;;;;;15.83;58.88;101633.38;5070873;28;20044;-74
2021/05/28 01:04:46;;;;;;;8.98;5.60;;;;;;;15.80;59.07;101632.03;5070628;28;20052;-70
2021/05/28 01:07:13;;;;;;;8.38;5.30;;;;;;;15.63;59.09;101629.25;5070077;28;20060;-69
2021/05/28 01:09:41;;;;;;;7.78;5.20;;;;;;;15.51;60.00;101637.41;5069772;28;20067;-72
2021/05/28 01:12:09;;;;;;;7.40;5.47;;;;;;;15.46;59.80;101632.03;5070402;28;20068;-70
2021/05/28 01:14:36;;;;;;;8.65;5.75;;;;;;;15.72;59.03;101632.88;5070253;28;20075;-70
2021/05/28 01:17:04;;;;;;;8.77;5.57;;;;;;;15.70;58.85;101627.66;5070461;28;20055;-71
2021/05/28 01:19:32;;;;;;;12.25;5.47;;;;;;;15.61;59.35;101634.31;5070159;28;20052;-66
2021/05/28 01:22:05;;;;;;;7.97;5.47;;;;;;;15.46;59.39;101637.56;5070137;28;20063;-70
2021/05/28 01:24:33;;;;;;;9.13;5.15;;;;;;;15.57;59.40;101634.16;5052267;28;20044;-71
2021/05/28 01:27:01;;;;;;;11.13;5.57;;;;;;;15.62;59.37;101641.53;5070568;28;20070;-69
2021/05/28 01:29:29;;;;;;;8.90;5.05;;;;;;;15.68;58.91;101637.44;5070374;28;20060;-68
2021/05/28 01:31:56;;;;;;;12.93;5.47;;;;;;;15.78;58.80;101634.31;5069302;28;20052;-72
2021/05/28 01:34:24;;;;;;;10.98;5.82;;;;;;;15.50;59.33;101633.81;5070303;28;20049;-67
2021/05/28 01:36:51;;;;;;;11.65;5.60;;;;;;;15.61;58.96;101642.66;5084845;28;20136;-66
2021/05/28 01:39:19;;;;;;;11.65;5.85;;;;;;;15.53;59.40;101635.94;5070611;28;20044;-68
2021/05/28 01:41:46;;;;;;;9.77;5.53;;;;;;;15.52;59.17;101641.81;5070137;28;20399;-69
2021/05/28 01:44:13;;;;;;;9.02;5.93;;;;;;;15.40;59.57;101645.22;5070190;28;20424;-65
2021/05/28 01:46:41;;;;;;;8.40;5.28;;;;;;;15.43;59.52;101633.47;5051794;28;20063;-71
2021/05/28 01:49:08;;;;;;;9.35;5.82;;;;;;;15.41;59.48;101637.72;5070013;28;20476;-65
2021/05/28 01:51:36;;;;;;;8.65;5.38;;;;;;;15.44;59.35;101646.22;5052054;28;20048;-66
2021/05/28 01:54:03;;;;;;;8.82;5.50;;;;;;;15.19;60.16;101646.09;5069446;28;20068;-63
2021/05/28 01:56:31;;;;;;;9.50;5.82;;;;;;;15.16;60.29;101638.44;5070174;28;20056;-65
2021/05/28 01:58:59;;;;;;;9.40;5.68;;;;;;;15.48;59.68;101641.63;5069944;28;20075;-71
2021/05/28 02:01:30;;;;;;;10.02;5.50;;;;;;;15.45;59.34;101644.25;5019590;28;20059;-70
2021/05/28 02:03:57;;;;;;;8.55;5.45;;;;;;;15.40;59.59;101644.41;5052552;28;20480;-70
2021/05/28 02:06:26;;;;;;;10.10;6.20;;;;;;;15.42;59.73;101647.69;5073476;28;20059;-72
2021/05/28 02:08:53;;;;;;;7.00;5.32;;;;;;;15.46;59.77;101651.44;5055793;28;20048;-72
2021/05/28 02:11:21;;;;;;;9.32;5.75;;;;;;;15.58;59.36;101644.13;5073340;28;20139;-70
2021/05/28 02:13:49;;;;;;;8.23;5.82;;;;;;;15.65;59.34;101649.19;5055549;28;20049;-70
2021/05/28 02:16:17;;;;;;;10.18;5.75;;;;;;;15.59;59.68;101656.88;5056279;28;20061;-68
2021/05/28 02:18:45;;;;;;;9.63;6.13;;;;;;;15.60;59.62;101654.91;5073656;28;20059;-72
2021/05/28 02:21:12;;;;;;;9.50;6.40;;;;;;;15.05;61.66;101660.09;5073700;28;20053;-63
2021/05/28 02:23:40;;;;;;;8.60;6.38;;;;;;;15.16;61.86;101660.63;5074952;28;20037;-66
2021/05/28 02:26:08;;;;;;;8.38;6.70;;;;;;;15.26;61.85;101655.59;5073950;28;20047;-68
2021/05/28 02:28:35;;;;;;;12.48;7.75;;;;;;;14.85;63.29;101657.91;5073742;28;20060;-66
2021/05/28 02:31:03;;;;;;;14.00;6.82;;;;;;;15.14;61.95;101658.19;5054876;28;20408;-63
2021/05/28 02:33:30;;;;;;;9.93;6.82;;;;;;;15.08;62.58;101655.88;5073302;28;20048;-61
2021/05/28 02:35:59;;;;;;;10.00;6.55;;;;;;;15.12;62.75;101660.47;5073210;28;20048;-62
2021/05/28 02:38:26;;;;;;;10.55;7.38;;;;;;;15.19;62.08;101662.75;5072693;28;20060;-68
2021/05/28 02:40:54;;;;;;;11.88;7.22;;;;;;;14.20;65.66;101663.16;5072829;28;20053;-64
2021/05/28 02:43:21;;;;;;;13.05;7.10;;;;;;;14.36;65.46;101658.09;5072702;28;20053;-66
2021/05/28 02:45:49;;;;;;;13.73;7.30;;;;;;;14.56;65.05;101663.09;5055090;28;20496;-64
2021/05/28 02:48:16;;;;;;;11.98;7.53;;;;;;;14.61;64.59;101668.50;5073161;28;20048;-61
2021/05/28 02:50:44;;;;;;;11.95;7.13;;;;;;;14.92;63.65;101660.22;5055150;28;20052;-62
2021/05/28 02:53:11;;;;;;;16.00;7.70;;;;;;;14.43;64.87;101666.78;5072148;28;20059;-61
2021/05/28 02:55:39;;;;;;;11.95;7.47;;;;;;;14.55;64.88;101664.25;5072853;28;20053;-64
2021/05/28 02:58:06;;;;;;;19.35;7.43;;;;;;;14.14;66.06;101660.84;5072136;28;20397;-67
2021/05/28 03:00:34;;;;;;;12.82;7.93;;;;;;;14.38;65.40;101655.84;5072740;28;20055;-66
2021/05/28 03:03:02;;;;;;;13.38;6.80;;;;;;;14.11;66.37;101655.91;5055000;28;20060;-62
2021/05/28 03:05:30;;;;;;;13.07;8.43;;;;;;;14.23;65.96;101662.53;5038209;28;20048;-64
2021/05/28 03:07:57;;;;;;;9.57;7.15;;;;;;;14.31;65.65;101670.13;5037900;28;20045;-64
2021/05/28 03:10:24;;;;;;;13.13;7.93;;;;;;;14.47;65.29;101668.59;5088180;28;20045;-62
2021/05/28 03:12:52;;;;;;;12.18;7.47;;;;;;;14.66;64.57;101668.41;5072652;28;20083;-70
2021/05/28 03:15:20;;;;;;;13.13;8.05;;;;;;;14.02;66.38;101666.09;5071384;28;20049;-67
2021/05/28 03:17:48;;;;;;;10.60;8.18;;;;;;;13.91;67.32;101673.03;5072349;28;20053;-68
2021/05/28 03:20:19;;;;;;;15.90;8.27;;;;;;;14.13;66.52;101659.19;5071250;28;20067;-62
2021/05/28 03:22:47;;;;;;;13.63;7.53;;;;;;;14.31;65.93;101667.34;5072271;28;20044;-63
2021/05/28 03:25:16;;;;;;;11.68;8.07;;;;;;;14.08;66.34;101662.09;5053760;28;20053;-70
2021/05/28 03:27:44;;;;;;;11.35;8.02;;;;;;;13.78;67.67;101665.56;5053971;28;20052;-66
2021/05/28 03:30:12;;;;;;;12.15;8.27;;;;;;;13.77;68.13;101667.53;5071074;28;20053;-70
2021/05/28 03:32:40;;;;;;;14.00;7.97;;;;;;;13.95;67.11;101661.00;5072149;28;20048;-68
2021/05/28 03:35:08;;;;;;;13.18;7.63;;;;;;;13.45;68.98;101667.69;5071730;28;20468;-64
2021/05/28 03:37:38;;;;;;;12.95;8.70;;;;;;;13.26;70.22;101673.34;5071679;28;20503;-70
2021/05/28 03:40:07;;;;;;;13.68;8.05;;;;;;;13.54;69.44;101663.91;5071255;28;20500;-68
2021/05/28 03:42:34;;;;;;;13.38;7.93;;;;;;;13.62;69.15;101667.03;5054191;28;20048;-69
2021/05/28 03:45:04;;;;;;;12.02;8.15;;;;;;;13.57;69.45;101659.69;5071416;28;20049;-68
2021/05/28 03:47:32;;;;;;;13.23;8.45;;;;;;;13.85;68.34;101652.94;5053191;28;20052;-73
2021/05/28 03:50:00;;;;;;;12.73;7.60;;;;;;;14.17;66.92;101655.50;5053778;28;20048;-71
2021/05/28 03:52:28;;;;;;;11.13;7.88;;;;;;;14.33;66.01;101655.97;5053660;28;20051;-65
2021/05/28 03:54:55;;;;;;;12.02;7.97;;;;;;;14.25;66.49;101653.91;5053974;28;20048;-66
2021/05/28 03:57:23;;;;;;;11.52;8.23;;;;;;;14.21;66.28;101653.72;5070954;28;20056;-69
2021/05/28 03:59:54;;;;;;;11.38;7.85;;;;;;;14.35;65.78;101656.44;5071078;28;20252;-70
2021/05/28 04:02:22;;;;;;;14.25;8.80;;;;;;;14.21;66.63;101648.16;5036832;28;20404;-66
2021/05/28 04:04:49;;;;;;;11.95;7.47;;;;;;;14.50;65.48;101645.81;5070701;28;20071;-65
2021/05/28 04:07:17;;;;;;;11.77;8.35;;;;;;;14.23;66.34;101656.16;5052750;28;20052;-69
2021/05/28 04:09:44;;;;;;;13.40;8.20;;;;;;;14.38;65.86;101655.84;5071023;28;20531;-72
2021/05/28 04:12:13;;;;;;;13.65;8.40;;;;;;;13.98;67.23;101659.56;5071039;28;20056;-65
2021/05/28 04:14:40;;;;;;;12.18;8.45;;;;;;;13.92;67.33;101666.34;5053018;28;20048;-72
2021/05/28 04:17:07;;;;;;;12.55;8.32;;;;;;;13.84;67.61;101659.63;5052744;28;20056;-69
2021/05/28 04:19:35;;;;;;;13.98;9.02;;;;;;;13.56;68.59;101655.28;5071123;28;20037;-65
2021/05/28 04:22:02;;;;;;;12.05;8.38;;;;;;;14.08;67.61;101668.47;5052636;28;20056;-67
2021/05/28 04:24:30;;;;;;;14.05;8.13;;;;;;;14.33;66.74;101669.81;5069993;28;20484;-69
2021/05/28 04:26:57;;;;;;;13.68;8.18;;;;;;;14.49;66.00;101662.75;5035730;28;20064;-65
2021/05/28 04:29:25;;;;;;;11.70;7.93;;;;;;;14.44;65.63;101671.19;5052527;28;20045;-67
2021/05/28 04:31:53;;;;;;;14.45;8.65;;;;;;;14.49;65.72;101660.78;5053159;28;20055;-66
2021/05/28 04:34:20;;;;;;;18.95;9.13;;;;;;;14.59;65.11;101665.28;5052901;28;20048;-65
2021/05/28 04:36:48;;;;;;;14.15;9.10;;;;;;;14.34;65.53;101661.19;5053054;28;20059;-66
2021/05/28 04:39:15;;;;;;;16.73;9.57;;;;;;;13.97;67.27;101667.06;5052921;28;20044;-70
2021/05/28 04:41:43;;;;;;;16.80;10.35;;;;;;;13.90;67.65;101668.59;5052038;28;20063;-68
2021/05/28 04:44:11;;;;;;;13.27;9.60;;;;;;;13.92;68.04;101681.03;5069745;28;20048;-62
2021/05/28 04:46:38;;;;;;;13.73;10.73;;;;;;;13.91;67.89;101681.34;5070476;28;20041;-66
2021/05/28 04:49:06;;;;;;;16.42;10.95;;;;;;;14.07;67.42;101680.66;5070205;28;20107;-66
2021/05/28 04:51:35;;;;;;;14.88;11.63;;;;;;;14.38;66.37;101683.56;5070603;28;20052;-67
2021/05/28 04:54:02;;;;;;;15.50;10.88;;;;;;;14.40;65.66;101686.84;5070654;28;20052;-74
2021/05/28 04:56:30;;;;;;;15.50;10.35;;;;;;;14.66;65.20;101685.84;5071082;28;20049;-70
2021/05/28 04:58:57;;;;;;;15.75;10.48;;;;;;;14.57;64.99;101684.16;5036192;28;20048;-71
2021/05/28 05:01:25;;;;;;;17.98;10.10;;;;;;;14.48;65.23;101692.44;5052327;28;20052;-69
2021/05/28 05:03:52;;;;;;;14.85;10.05;;;;;;;14.33;65.97;101697.53;5070202;28;20059;-70
2021/05/28 05:06:20;;;;;;;17.15;9.90;;;;;;;13.96;67.21;101692.31;5036123;28;20045;-69
2021/05/28 05:08:47;;;;;;;16.70;10.30;;;;;;;13.93;67.75;101693.72;5070743;28;20040;-69
2021/05/28 05:11:15;;;;;;;20.20;10.43;;;;;;;14.21;66.82;101703.59;5052877;28;20400;-73
2021/05/28 05:13:43;;;;;;;13.18;9.75;;;;;;;14.33;66.20;101705.84;5052241;28;20392;-73
2021/05/28 05:16:11;;;;;;;13.63;9.40;;;;;;;14.49;65.85;101709.88;5070216;28;20055;-68
2021/05/28 05:18:38;;;;;;;16.30;10.73;;;;;;;14.45;65.55;101717.19;5070833;28;20056;-71
2021/05/28 05:21:06;;;;;;;20.55;10.30;;;;;;;14.48;65.54;101724.88;5070302;28;20055;-69
2021/05/28 05:23:33;;;;;;;18.00;10.98;;;;;;;14.19;66.75;101716.16;5051830;28;20053;-70
2021/05/28 05:26:01;;;;;;;15.77;10.82;;;;;;;14.14;67.07;101717.06;5070137;28;20055;-69
2021/05/28 05:28:28;;;;;;;15.52;11.20;;;;;;;14.09;67.45;101716.34;5070396;28;20476;-74
2021/05/28 05:30:55;;;;;;;20.55;12.23;;;;;;;14.52;65.81;101710.06;5071398;28;20068;-68
2021/05/28 05:33:23;;;;;;;16.90;11.13;;;;;;;14.76;65.37;101715.28;5051867;28;20420;-69
2021/05/28 05:35:50;;;;;;;19.77;11.65;;;;;;;14.67;65.29;101711.63;5052299;28;20496;-72
2021/05/28 05:38:19;;;;;;;18.00;10.80;;;;;;;14.27;66.44;101726.50;5070565;28;20045;-71
2021/05/28 05:40:46;;;;;;;19.77;11.30;;;;;;;13.87;67.71;101719.09;5074166;28;20048;-68
2021/05/28 05:43:13;;;;;;;16.98;11.20;;;;;;;14.23;67.42;101715.19;5055637;28;20052;-66
2021/05/28 05:45:42;;;;;;;18.17;11.43;;;;;;;14.06;67.32;101708.69;5073378;28;20056;-67
2021/05/28 05:48:10;;;;;;;13.93;11.00;;;;;;;14.54;66.31;101709.72;5055201;28;20068;-70
2021/05/28 05:50:37;;;;;;;22.50;10.80;;;;;;;14.78;65.30;101713.00;5074045;28;20475;-75
2021/05/28 05:53:04;;;;;;;20.65;11.55;;;;;;;14.77;64.54;101711.34;5056158;28;20083;-65
2021/05/28 05:55:32;;;;;;;17.15;11.43;;;;;;;14.80;64.37;101710.75;5056191;28;20400;-77
2021/05/28 05:57:59;;;;;;;14.30;10.85;;;;;;;14.70;64.65;101711.00;5056177;28;20407;-63
2021/05/28 06:00:27;;;;;;;20.85;12.20;;;;;;;14.56;65.02;101711.06;5073662;28;20067;-70
2021/05/28 06:02:54;;;;;;;19.20;11.27;;;;;;;14.66;65.01;101718.31;5073282;28;20518;-75
2021/05/28 06:05:22;;;;;;;17.95;11.77;;;;;;;14.52;65.45;101710.06;5038923;28;20051;-68
2021/05/28 06:07:49;;;;;;;19.45;12.25;;;;;;;14.32;65.97;101710.56;5073676;28;20052;-70
2021/05/28 06:10:16;;;;;;;17.08;11.98;;;;;;;14.26;66.52;101724.88;5055224;28;20060;-74
2021/05/28 06:12:44;;;;;;;25.08;13.38;;;;;;;14.49;65.57;101718.19;5073824;28;20115;-74
2021/05/28 06:15:12;;;;;;;17.83;11.63;;;;;;;14.34;66.56;101721.34;5055221;28;20455;-73
2021/05/28 06:17:39;;;;;;;16.33;11.68;;;;;;;14.68;65.14;101716.03;5073487;28;20056;-75
2021/05/28 06:20:09;;;;;;;16.50;11.68;;;;;;;14.75;64.39;101726.69;5073278;28;20044;-70
2021/05/28 06:22:38;;;;;;;18.80;11.95;;;;;;;14.38;65.14;101723.16;5055192;28;20075;-74
2021/05/28 06:25:07;;;;;;;20.05;12.13;;;;;;;14.61;64.95;101716.47;5073682;28;20044;-76
2021/05/28 06:27:34;;;;;;;23.67;12.13;;;;;;;14.65;64.95;101706.41;5055276;28;20056;-77
2021/05/28 06:30:02;;;;;;;17.00;12.15;;;;;;;14.92;64.30;101716.53;5073230;28;20045;-75
2021/05/28 06:32:30;;;;;;;22.00;12.57;;;;;;;14.29;66.09;101713.97;5072904;28;20060;-73
2021/05/28 06:34:57;;;;;;;23.33;11.90;;;;;;;14.67;65.25;101706.09;5072956;28;20048;-71
2021/05/28 06:37:25;;;;;;;18.20;11.52;;;;;;;15.04;63.87;101705.66;5054367;28;20066;-74
2021/05/28 06:39:52;;;;;;;23.63;11.90;;;;;;;15.05;63.40;101707.28;5055578;28;20046;-73
2021/05/28 06:42:21;;;;;;;20.08;11.90;;;;;;;15.15;62.69;101706.97;5056785;28;20055;-71
2021/05/28 06:44:48;;;;;;;22.67;12.85;;;;;;;14.71;64.62;101711.81;5073026;28;20054;-72
2021/05/28 06:47:17;;;;;;;19.67;12.23;;;;;;;14.94;64.21;101714.22;5072072;28;20067;-67
2021/05/28 06:49:45;;;;;;;22.20;11.82;;;;;;;15.40;62.41;101711.88;5037866;28;20423;-74
2021/05/28 06:52:16;;;;;;;20.63;12.27;;;;;;;15.44;61.90;101712.03;5037874;28;20052;-74
2021/05/28 06:54:44;;;;;;;19.48;12.82;;;;;;;14.89;63.84;101714.38;5072765;28;20045;-69
2021/05/28 06:57:12;;;;;;;23.30;13.38;;;;;;;14.59;64.40;101713.19;5072099;28;20587;-69
2021/05/28 06:59:39;;;;;;;21.60;11.93;;;;;;;14.70;64.96;101711.00;5072248;28;20059;-70
2021/05/28 07:02:07;;;;;;;29.30;13.55;;;;;;;14.93;64.00;101715.38;5071297;28;20049;-71
2021/05/28 07:04:35;;;;;;;13.63;11.25;;;;;;;15.19;63.00;101708.00;5037586;28;20381;-76
2021/05/28 07:07:02;;;;;;;20.02;11.57;;;;;;;15.43;61.73;101707.63;5071857;28;20055;-73
2021/05/28 07:09:30;;;;;;;21.77;10.73;;;;;;;15.61;60.66;101704.56;5072462;28;20055;-75
2021/05/28 07:11:57;;;;;;;22.58;11.45;;;;;;;15.68;60.61;101712.44;5054127;28;20044;-71
2021/05/28 07:14:25;;;;;;;17.67;12.98;;;;;;;15.81;59.94;101713.44;5054271;28;20052;-74
2021/05/28 07:16:52;;;;;;;19.33;13.18;;;;;;;15.76;59.92;101714.38;5054872;28;20055;-72
2021/05/28 07:19:20;;;;;;;18.08;11.05;;;;;;;16.16;59.02;101717.91;5054795;28;20054;-72
2021/05/28 07:21:47;;;;;;;17.48;10.63;;;;;;;16.31;57.93;101720.19;5072746;28;20048;-71
2021/05/28 07:24:15;;;;;;;13.68;8.82;;;;;;;16.31;56.95;101717.41;5053872;28;20048;-72
2021/05/28 07:26:42;;;;;;;14.38;8.43;;;;;;;16.65;55.91;101706.25;5072542;28;20072;-76
2021/05/28 07:29:12;;;;;;;;;;;;;;;16.51;55.98;101716.78;5066164;28;20052;-71
2021/05/28 07:31:42;;;;;;;15.27;9.23;;;;;;;16.73;56.48;101711.00;5091235;28;20398;-75
2021/05/28 07:34:10;;;;;;;16.90;8.55;;;;;;;16.73;55.51;101711.00;5092851;28;20047;-69
2021/05/28 07:36:37;;;;;;;14.00;8.32;;;;;;;17.10;53.37;101701.06;5091921;28;20059;-72
2021/05/28 07:39:05;;;;;;;15.10;8.18;;;;;;;17.23;53.37;101700.84;5073072;28;20044;-72
2021/05/28 07:41:33;;;;;;;12.18;7.05;;;;;;;17.72;51.69;101697.34;5074229;28;20044;-68
2021/05/28 07:44:00;;;;;;;15.23;7.38;;;;;;;17.78;50.90;101689.59;5091176;28;20055;-67
2021/05/28 07:46:28;;;;;;;10.50;7.50;;;;;;;17.80;51.09;101685.31;5085706;28;20055;-69
2021/05/28 07:48:56;;;;;;;12.73;8.05;;;;;;;17.74;51.38;101685.84;5106241;28;20491;-66
2021/05/28 07:51:24;;;;;;;9.98;6.97;;;;;;;17.78;50.22;101687.63;5050313;28;20044;-71
2021/05/28 07:53:52;;;;;;;9.70;6.82;;;;;;;17.91;49.83;101685.72;5081685;28;20058;-73
2021/05/28 07:56:19;;;;;;;9.73;5.80;;;;;;;18.39;49.32;101682.38;5046411;28;20633;-75
2021/05/28 07:58:46;;;;;;;11.15;6.63;;;;;;;18.40;47.91;101678.41;5053356;28;20488;-73
2021/05/28 08:01:14;;;;;;;13.35;6.40;;;;;;;18.30;49.95;101679.69;5088642;28;20056;-74
2021/05/28 08:03:41;;;;;;;14.05;6.78;;;;;;;18.01;49.06;101673.38;5073672;28;20510;-72
2021/05/28 08:06:09;;;;;;;12.68;6.28;;;;;;;18.19;48.12;101674.84;5074449;28;20060;-73
2021/05/28 08:08:36;;;;;;;11.13;6.72;;;;;;;17.20;51.11;101689.56;5070256;28;20056;-75
2021/05/28 08:11:03;;;;;;;15.73;6.55;;;;;;;17.84;49.62;101677.09;5090270;28;20052;-74
2021/05/28 08:13:32;;;;;;;12.30;6.57;;;;;;;17.85;48.86;101673.16;5088624;28;20040;-71
2021/05/28 08:16:00;;;;;;;14.27;6.87;;;;;;;18.11;48.68;101681.31;5083741;28;20047;-71
2021/05/28 08:18:29;;;;;;;12.38;5.60;;;;;;;18.41;47.85;101668.94;5068094;28;20051;-70
2021/05/28 08:20:57;;;;;;;12.73;6.20;;;;;;;18.53;47.26;101675.34;5053069;28;20040;-67
2021/05/28 08:23:24;;;;;;;13.52;5.80;;;;;;;18.30;47.67;101659.31;5088128;28;20059;-72
2021/05/28 08:25:52;;;;;;;13.77;6.45;;;;;;;18.05;48.46;101665.94;5052415;28;20063;-70
2021/05/28 08:28:19;;;;;;;11.02;6.45;;;;;;;17.71;48.77;101672.59;5085661;28;20411;-71
2021/05/28 08:30:47;;;;;;;10.23;5.72;;;;;;;18.04;48.95;101667.09;5090716;28;20055;-71
2021/05/28 08:33:15;;;;;;;9.10;5.70;;;;;;;18.30;48.48;101676.06;5074955;28;20487;-74
2021/05/28 08:35:44;;;;;;;11.85;6.75;;;;;;;18.37;47.88;101673.53;5087027;28;20079;-69
2021/05/28 08:38:12;;;;;;;12.25;6.82;;;;;;;18.62;47.24;101669.72;5070338;28;20056;-69
2021/05/28 08:40:40;;;;;;;11.65;6.45;;;;;;;18.47;47.37;101670.34;5071050;28;20044;-74
2021/05/28 08:43:07;;;;;;;14.10;6.25;;;;;;;18.01;48.50;101662.22;5053187;28;20456;-73
2021/05/28 08:45:36;;;;;;;12.52;6.75;;;;;;;18.16;48.69;101667.16;5071137;28;20036;-71
2021/05/28 08:48:04;;;;;;;14.63;6.50;;;;;;;18.09;48.39;101653.78;5052655;28;20432;-69
2021/05/28 08:50:32;;;;;;;10.57;6.32;;;;;;;18.02;48.38;101658.25;5052725;28;20056;-70
2021/05/28 08:53:01;;;;;;;13.98;5.70;;;;;;;18.20;48.04;101646.59;5062395;28;20047;-72
2021/05/28 08:55:29;;;;;;;12.60;5.35;;;;;;;17.89;48.41;101649.00;5084371;28;20052;-71
2021/05/28 08:57:58;;;;;;;15.18;6.38;;;;;;;18.10;48.50;101651.81;5082944;28;20051;-69
2021/05/28 09:00:28;;;;;;;10.38;5.47;;;;;;;18.35;47.90;101653.53;5070564;28;20051;-68
2021/05/28 09:02:55;;;;;;;11.90;4.97;;;;;;;17.95;47.61;101653.25;5061623;28;20044;-69
2021/05/28 09:05:24;;;;;;;11.65;5.60;;;;;;;17.94;47.77;101649.63;5072701;28;20049;-72
2021/05/28 09:08:01;;;;;;;11.95;5.45;;;;;;;18.01;47.83;101653.84;5056091;28;20411;-70
2021/05/28 09:10:29;;;;;;;10.70;5.45;;;;;;;18.19;47.57;101650.56;5053620;28;20048;-72
2021/05/28 09:13:14;;;;;;;9.32;6.00;;;;;;;18.43;47.01;101647.09;5073479;28;20053;-71
2021/05/28 09:15:45;;;;;;;12.50;5.50;;;;;;;18.39;46.84;101649.72;5073337;28;20503;-67
2021/05/28 09:18:13;;;;;;;;;;;;;;;18.40;46.55;101656.09;5058447;28;20052;-72
2021/05/28 09:20:47;;;;;;;9.07;4.93;;;;;;;18.51;46.09;101654.56;5062113;28;19931;-69
2021/05/28 09:23:17;;;;;;;8.38;4.55;;;;;;;18.82;45.72;101646.50;5057013;28;20059;-68
2021/05/28 09:26:03;;;;;;;6.25;4.13;;;;;;;18.96;45.50;101636.63;5086653;28;20067;-73
2021/05/28 09:28:40;;;;;;;9.05;4.18;;;;;;;18.71;45.69;101645.28;5032987;28;20040;-69
2021/05/28 09:31:11;;;;;;;7.40;4.05;;;;;;;18.40;45.42;101631.84;5075339;28;20507;-69
2021/05/28 09:33:42;;;;;;;7.78;3.72;;;;;;;18.65;45.74;101633.56;5048077;28;20051;-71
2021/05/28 09:36:36;;;;;;;8.82;4.32;;;;;;;18.39;45.81;101633.00;5076685;28;20066;-69
2021/05/28 09:39:05;;;;;;;8.48;3.97;;;;;;;18.63;46.03;101641.47;5078561;28;20063;-71
2021/05/28 09:41:50;;;;;;;7.97;4.30;;;;;;;18.59;44.74;101637.72;5058541;28;20049;-72
2021/05/28 09:44:22;;;;;;;8.88;4.28;;;;;;;18.69;45.11;101639.28;5076704;28;20055;-75
2021/05/28 09:47:13;;;;;;;9.13;3.65;;;;;;;18.91;43.69;101630.47;5074887;28;20061;-66
2021/05/28 09:49:42;;;;;;;7.78;4.15;;;;;;;18.52;44.45;101631.88;5088686;28;20055;-74
2021/05/28 09:52:21;;;;;;;8.85;3.58;;;;;;;18.77;43.91;101624.38;5087325;28;20045;-75
2021/05/28 09:54:55;;;;;;;10.00;3.72;;;;;;;18.90;42.82;101614.84;5076203;28;20052;-73
2021/05/28 09:57:53;;;;;;;9.07;3.15;;;;;;;18.69;42.65;101622.53;5075852;28;20511;-71
2021/05/28 10:00:34;;;;;;;9.68;3.60;;;;;;;18.88;42.87;101617.19;5014260;28;20062;-72
2021/05/28 10:03:22;;;;;;;6.57;3.60;;;;;;;19.08;42.88;101611.50;5009294;28;20050;-72
2021/05/28 10:05:52;;;;;;;8.27;3.50;;;;;;;19.33;43.06;101606.75;4999425;28;20509;-77
2021/05/28 10:08:21;;;;;;;8.80;4.05;;;;;;;19.31;43.12;101614.66;5012785;28;20049;-71
2021/05/28 10:10:50;;;;;;;5.20;3.05;;;;;;;19.60;42.64;101614.38;5007487;28;20110;-71
2021/05/28 10:13:19;;;;;;;7.45;3.17;;;;;;;19.54;41.54;101612.19;4997647;28;20054;-76
2021/05/28 10:15:48;;;;;;;6.05;2.65;;;;;;;19.58;39.82;101604.75;4994319;28;20059;-73
2021/05/28 10:18:17;;;;;;;7.03;2.90;;;;;;;19.55;39.87;101603.47;5000082;28;20050;-76
2021/05/28 10:20:48;;;;;;;6.57;2.78;;;;;;;19.49;40.18;101596.47;4991657;28;20061;-74
2021/05/28 10:23:17;;;;;;;10.75;3.17;;;;;;;19.21;40.54;101598.34;5000846;28;20383;-72
2021/05/28 10:25:48;;;;;;;8.18;2.72;;;;;;;19.17;41.18;101586.25;4992475;28;20061;-74
2021/05/28 10:28:41;;;;;;;8.52;2.70;;;;;;;19.21;41.25;101601.16;4995327;28;20050;-73
2021/05/28 10:31:10;;;;;;;7.43;3.10;;;;;;;19.21;41.27;101605.91;4999517;28;20210;-72
2021/05/28 10:33:48;;;;;;;8.10;2.50;;;;;;;19.38;39.88;101603.72;4999828;28;20053;-72
2021/05/28 10:36:41;;;;;;;9.68;2.40;;;;;;;19.70;39.80;101596.34;5023273;28;20056;-70
2021/05/28 10:39:11;;;;;;;6.78;2.75;;;;;;;19.70;38.82;101607.50;5072859;28;20053;-75
2021/05/28 10:41:49;;;;;;;7.93;2.90;;;;;;;19.28;40.64;101600.56;5088122;28;20083;-71
2021/05/28 10:44:19;;;;;;;5.30;2.63;;;;;;;18.98;40.67;101592.44;5085260;28;20052;-76
2021/05/28 10:46:52;;;;;;;6.60;2.47;;;;;;;19.33;40.28;101589.19;5068390;28;20566;-72
2021/05/28 10:49:35;;;;;;;4.20;2.30;;;;;;;19.75;39.11;101591.28;5062798;28;20048;-74
2021/05/28 10:52:04;;;;;;;4.85;1.92;;;;;;;19.76;38.71;101594.91;5061717;28;20370;-73
2021/05/28 10:54:34;;;;;;;7.38;2.50;;;;;;;19.76;39.13;101586.50;5071846;28;20057;-73
2021/05/28 10:57:25;;;;;;;;;;;;;;;19.82;38.41;101597.09;5074936;28;20052;-74
2021/05/28 10:59:57;;;;;;;5.32;1.98;;;;;;;19.81;38.50;101594.66;5031837;28;19928;-71
2021/05/28 11:02:43;;;;;;;3.88;1.90;;;;;;;19.70;37.55;101591.53;5036276;28;20057;-71
2021/05/28 11:05:11;;;;;;;5.60;2.03;;;;;;;19.86;37.69;101580.41;5039183;28;20049;-72
2021/05/28 11:07:44;;;;;;;5.65;2.05;;;;;;;20.12;36.91;101583.56;5047796;28;20527;-73
2021/05/28 11:10:20;;;;;;;3.28;1.50;;;;;;;20.27;36.04;101584.81;5032234;28;20048;-69
2021/05/28 11:12:47;;;;;;;4.32;1.90;;;;;;;20.34;35.91;101590.63;5035059;28;20051;-74
2021/05/28 11:15:27;;;;;;;6.68;1.88;;;;;;;20.44;36.16;101581.69;5031131;28;20128;-72
2021/05/28 11:18:04;;;;;;;;;;;;;;;20.35;35.10;101575.44;5040031;28;20624;-70
2021/05/28 11:20:42;;;;;;;;;;;;;;;20.44;36.19;101581.69;5029244;28;19921;-70
2021/05/28 11:23:13;;;;;;;;;;;;;;;20.63;35.75;101577.03;5044803;28;19929;-71
2021/05/28 11:25:51;;;;;;;;;;;;;;;20.23;35.54;101579.13;5050284;28;19920;-70
2021/05/28 11:28:18;;;;;;;;;;;;;;;20.15;36.60;101574.47;5033421;28;19943;-72